Time;durP1;ratioP1;P1;durP2;ratioP2;P2;SDS_P1;SDS_P2;PMS_P1;PMS_P2;Temp;Humidity;BMP_temperature;BMP_pressure;BME280_temperature;BME280_humidity;BME280_pressure;Samples;Min_cycle;Max_cycle;Signal;HPM_P1;HPM_P2
2022/01/19 00:01:00;;;;;;;8.10;4.43;;;;;;;;;;4971572;28;20055;-76
2022/01/19 00:03:26;;;;;;;8.00;3.85;;;;;;;;;;4971305;28;20097;-76
2022/01/19 00:05:52;;;;;;;9.68;4.00;;;;;;;;;;4971690;28;20549;-76
2022/01/19 00:08:21;;;;;;;7.32;4.05;;;;;;;;;;4970137;28;20039;-76
2022/01/19 00:10:48;;;;;;;6.40;4.03;;;;;;;;;;4970255;28;20043;-76
2022/01/19 00:13:14;;;;;;;5.85;3.85;;;;;;;;;;4971688;28;20046;-76
2022/01/19 00:15:40;;;;;;;8.80;4.03;;;;;;;;;;4970051;28;20485;-76
2022/01/19 00:18:06;;;;;;;7.72;4.10;;;;;;;;;;4971407;28;20070;-75
2022/01/19 00:20:34;;;;;;;6.32;3.58;;;;;;;;;;4970850;28;20141;-74
2022/01/19 00:23:01;;;;;;;7.00;4.05;;;;;;;;;;4970969;28;20042;-74
2022/01/19 00:25:27;;;;;;;6.72;4.35;;;;;;;;;;4971356;28;20047;-74
2022/01/19 00:27:53;;;;;;;7.25;4.60;;;;;;;;;;4971252;28;20046;-74
2022/01/19 00:30:19;;;;;;;8.60;4.18;;;;;;;;;;4971096;28;20127;-75
2022/01/19 00:32:45;;;;;;;10.52;4.50;;;;;;;;;;4970721;28;20372;-74
2022/01/19 00:35:14;;;;;;;14.05;3.92;;;;;;;;;;4970970;28;20097;-73
2022/01/19 00:37:41;;;;;;;7.70;3.85;;;;;;;;;;4968069;28;20039;-73
2022/01/19 00:40:09;;;;;;;11.00;3.75;;;;;;;;;;4970417;28;20401;-73
2022/01/19 00:42:35;;;;;;;6.13;3.63;;;;;;;;;;4969844;28;20081;-73
2022/01/19 00:45:01;;;;;;;6.32;3.88;;;;;;;;;;4969345;28;20046;-73
2022/01/19 00:47:27;;;;;;;11.43;4.10;;;;;;;;;;4970629;28;20047;-72
2022/01/19 00:49:54;;;;;;;9.93;4.05;;;;;;;;;;4954215;28;20042;-74
2022/01/19 00:52:26;;;;;;;10.45;3.78;;;;;;;;;;4969548;28;20398;-74
2022/01/19 00:54:52;;;;;;;6.93;3.70;;;;;;;;;;4968677;28;20412;-73
2022/01/19 00:57:19;;;;;;;6.40;3.55;;;;;;;;;;4970813;28;20053;-74
2022/01/19 00:59:45;;;;;;;7.50;4.00;;;;;;;;;;4970794;28;20081;-74
2022/01/19 01:02:11;;;;;;;6.25;3.70;;;;;;;;;;4970494;28;20043;-74
2022/01/19 01:04:37;;;;;;;7.30;3.42;;;;;;;;;;4968914;28;20039;-74
2022/01/19 01:07:03;;;;;;;6.93;3.70;;;;;;;;;;4970037;28;20050;-74
2022/01/19 01:09:30;;;;;;;7.20;4.15;;;;;;;;;;4969004;28;20075;-74
2022/01/19 01:12:10;;;;;;;8.40;4.30;;;;;;;;;;4969902;28;20091;-74
2022/01/19 01:20:07;;;;;;;7.75;4.03;;;;;;;;;;4969721;28;20050;-74
2022/01/19 01:22:34;;;;;;;6.60;3.65;;;;;;;;;;4968565;28;20397;-74
2022/01/19 01:25:00;;;;;;;7.85;3.95;;;;;;;;;;4968085;28;20047;-74
2022/01/19 01:27:26;;;;;;;7.65;3.70;;;;;;;;;;4969595;28;20043;-74
2022/01/19 01:29:52;;;;;;;8.88;3.95;;;;;;;;;;4970237;28;20394;-74
2022/01/19 01:32:18;;;;;;;6.40;3.50;;;;;;;;;;4969755;28;20497;-74
2022/01/19 01:34:45;;;;;;;7.25;3.67;;;;;;;;;;4969517;28;20047;-74
2022/01/19 01:37:11;;;;;;;7.65;3.75;;;;;;;;;;4966353;28;20046;-72
2022/01/19 01:39:37;;;;;;;9.75;4.15;;;;;;;;;;4969861;28;20046;-72
2022/01/19 01:42:10;;;;;;;9.55;3.72;;;;;;;;;;4969642;28;20054;-74
2022/01/19 01:44:38;;;;;;;8.02;3.80;;;;;;;;;;4966565;28;20177;-74
2022/01/19 01:47:04;;;;;;;7.65;3.83;;;;;;;;;;4969552;28;20063;-75
2022/01/19 01:53:25;;;;;;;7.90;3.83;;;;;;;;;;4969942;28;20458;-74
2022/01/19 01:55:17;;;;;;;8.70;3.90;;;;;;;;;;4969875;28;20082;-75
2022/01/19 01:57:44;;;;;;;7.10;3.97;;;;;;;;;;4968290;28;20102;-75
2022/01/19 02:00:12;;;;;;;8.52;3.75;;;;;;;;;;4969250;28;20528;-74
2022/01/19 02:02:39;;;;;;;9.30;5.13;;;;;;;;;;4967855;28;20561;-74
2022/01/19 02:05:09;;;;;;;7.95;4.35;;;;;;;;;;4968203;28;20038;-74
2022/01/19 02:08:01;;;;;;;8.80;3.92;;;;;;;;;;4967821;28;20042;-74
2022/01/19 02:15:54;;;;;;;7.45;4.05;;;;;;;;;;4968053;28;20737;-76
2022/01/19 02:23:53;;;;;;;7.60;3.85;;;;;;;;;;4967503;28;20408;-75
2022/01/19 02:26:28;;;;;;;11.02;4.55;;;;;;;;;;4968968;28;20135;-75
2022/01/19 02:29:00;;;;;;;7.63;4.35;;;;;;;;;;4969320;28;20043;-75
2022/01/19 02:42:39;;;;;;;7.63;4.13;;;;;;;;;;4968779;28;20050;-75
2022/01/19 02:50:17;;;;;;;7.25;4.05;;;;;;;;;;4967503;28;20440;-74
2022/01/19 02:52:43;;;;;;;12.30;4.70;;;;;;;;;;4968268;28;20043;-74
2022/01/19 02:55:10;;;;;;;8.02;4.45;;;;;;;;;;4951507;28;20054;-74
2022/01/19 02:57:37;;;;;;;10.48;4.47;;;;;;;;;;4968692;28;20051;-74
2022/01/19 03:11:05;;;;;;;8.68;4.25;;;;;;;;;;4967870;28;20051;-74
2022/01/19 03:13:31;;;;;;;9.43;4.30;;;;;;;;;;4966906;28;20077;-74
2022/01/19 03:15:57;;;;;;;10.63;4.57;;;;;;;;;;4950853;28;20043;-72
2022/01/19 03:18:24;;;;;;;10.52;4.80;;;;;;;;;;4966974;28;20047;-71
2022/01/19 03:20:50;;;;;;;12.50;4.65;;;;;;;;;;4968245;28;20535;-73
2022/01/19 03:23:20;;;;;;;13.50;5.05;;;;;;;;;;4967974;28;20476;-74
2022/01/19 03:25:50;;;;;;;12.25;4.65;;;;;;;;;;4967511;28;20055;-74
2022/01/19 03:28:16;;;;;;;;;;;;;;;;;;4967657;28;20046;-75
2022/01/19 03:30:46;;;;;;;14.23;5.03;;;;;;;;;;4966957;28;19972;-75
2022/01/19 03:33:12;;;;;;;10.05;4.43;;;;;;;;;;4966964;28;20050;-75
2022/01/19 03:35:38;;;;;;;8.85;4.82;;;;;;;;;;4968147;28;20457;-74
2022/01/19 03:38:08;;;;;;;13.02;5.05;;;;;;;;;;4967504;28;20381;-74
2022/01/19 03:40:34;;;;;;;16.02;4.90;;;;;;;;;;4966628;28;20046;-74
2022/01/19 03:43:01;;;;;;;9.95;5.32;;;;;;;;;;4968181;28;20524;-74
2022/01/19 03:45:27;;;;;;;11.73;5.05;;;;;;;;;;4967590;28;20039;-74
2022/01/19 03:48:14;;;;;;;10.15;5.03;;;;;;;;;;4968032;28;20115;-73
2022/01/19 03:50:40;;;;;;;11.88;5.68;;;;;;;;;;4966937;28;20039;-74
2022/01/19 03:53:06;;;;;;;11.48;5.63;;;;;;;;;;4967408;28;20378;-74
2022/01/19 03:55:32;;;;;;;11.02;5.63;;;;;;;;;;4967554;28;20490;-74
2022/01/19 03:57:58;;;;;;;10.27;5.45;;;;;;;;;;4968085;28;20046;-74
2022/01/19 04:00:24;;;;;;;10.30;5.38;;;;;;;;;;4967067;28;20172;-74
2022/01/19 04:02:51;;;;;;;9.48;5.43;;;;;;;;;;4966517;28;20050;-74
2022/01/19 04:05:36;;;;;;;11.18;5.75;;;;;;;;;;4967603;28;20046;-73
2022/01/19 04:08:02;;;;;;;9.93;5.55;;;;;;;;;;4966238;28;20043;-73
2022/01/19 04:10:28;;;;;;;10.73;5.68;;;;;;;;;;4967307;28;20442;-74
2022/01/19 04:13:07;;;;;;;11.30;5.88;;;;;;;;;;4967068;28;20448;-74
2022/01/19 04:15:33;;;;;;;10.95;5.45;;;;;;;;;;4965758;28;20046;-73
2022/01/19 04:17:59;;;;;;;11.50;5.25;;;;;;;;;;4966167;28;20140;-73
2022/01/19 04:20:26;;;;;;;11.02;5.28;;;;;;;;;;4966608;28;20067;-73
2022/01/19 04:22:53;;;;;;;11.25;6.05;;;;;;;;;;4967928;28;20054;-73
2022/01/19 04:25:19;;;;;;;12.10;5.60;;;;;;;;;;4966781;28;20035;-72
2022/01/19 04:27:45;;;;;;;11.68;6.30;;;;;;;;;;4971187;28;20039;-73
2022/01/19 04:30:13;;;;;;;11.07;5.82;;;;;;;;;;4971130;28;20058;-73
2022/01/19 04:35:27;;;;;;;11.93;5.82;;;;;;;;;;4970966;28;20043;-72
2022/01/19 04:47:00;;;;;;;14.25;6.40;;;;;;;;;;4969309;28;20054;-74
2022/01/19 05:05:34;;;;;;;;;;;;;;;;;;4950703;28;20106;-73
2022/01/19 05:08:13;;;;;;;11.57;6.10;;;;;;;;;;4970712;28;19988;-73
2022/01/19 05:15:51;;;;;;;11.38;6.10;;;;;;;;;;4970345;28;20518;-73
2022/01/19 05:18:17;;;;;;;10.73;6.07;;;;;;;;;;4970092;28;20051;-73
2022/01/19 05:20:45;;;;;;;11.40;6.05;;;;;;;;;;4966867;28;20050;-73
2022/01/19 05:23:11;;;;;;;10.85;6.28;;;;;;;;;;4970487;28;20125;-74
2022/01/19 05:25:38;;;;;;;11.00;5.97;;;;;;;;;;4970302;28;20051;-74
2022/01/19 05:28:04;;;;;;;12.02;5.95;;;;;;;;;;4970618;28;20050;-74
2022/01/19 05:30:30;;;;;;;13.77;6.00;;;;;;;;;;4969873;28;20125;-73
2022/01/19 05:32:56;;;;;;;19.70;6.95;;;;;;;;;;4969568;28;20118;-73
2022/01/19 05:35:24;;;;;;;12.50;5.47;;;;;;;;;;4970210;28;20055;-73
2022/01/19 05:37:50;;;;;;;13.68;5.45;;;;;;;;;;4959213;28;20062;-73
2022/01/19 05:40:17;;;;;;;10.65;5.30;;;;;;;;;;4970191;28;20039;-73
2022/01/19 05:42:46;;;;;;;12.15;5.75;;;;;;;;;;4970221;28;20050;-73
2022/01/19 05:45:12;;;;;;;12.27;4.90;;;;;;;;;;4969716;28;20039;-73
2022/01/19 05:47:38;;;;;;;10.73;5.57;;;;;;;;;;4969195;28;20808;-73
2022/01/19 05:50:04;;;;;;;18.67;5.95;;;;;;;;;;4969836;28;20122;-73
2022/01/19 05:52:30;;;;;;;9.90;5.53;;;;;;;;;;4969434;28;20440;-74
2022/01/19 05:54:56;;;;;;;11.90;5.43;;;;;;;;;;4969373;28;20501;-74
2022/01/19 05:57:22;;;;;;;11.77;5.80;;;;;;;;;;4969999;28;20058;-74
2022/01/19 05:59:49;;;;;;;11.10;5.88;;;;;;;;;;4967231;28;20567;-74
2022/01/19 06:02:16;;;;;;;8.95;4.32;;;;;;;;;;4969730;28;20062;-74
2022/01/19 06:04:42;;;;;;;10.25;6.05;;;;;;;;;;4969294;28;20054;-74
2022/01/19 06:07:08;;;;;;;11.23;5.53;;;;;;;;;;4969284;28;20117;-74
2022/01/19 06:12:11;;;;;;;8.45;5.22;;;;;;;;;;4967116;28;20046;-74
2022/01/19 06:14:38;;;;;;;9.05;5.10;;;;;;;;;;4969230;28;20381;-73
2022/01/19 06:17:06;;;;;;;13.73;5.20;;;;;;;;;;4968920;28;20046;-74
2022/01/19 06:19:32;;;;;;;9.77;5.45;;;;;;;;;;4969468;28;20050;-73
2022/01/19 06:21:58;;;;;;;10.23;5.50;;;;;;;;;;4969174;28;20070;-74
2022/01/19 06:24:24;;;;;;;10.63;5.30;;;;;;;;;;4967714;28;20118;-74
2022/01/19 06:26:50;;;;;;;8.30;5.28;;;;;;;;;;4968443;28;20513;-73
2022/01/19 06:29:16;;;;;;;10.90;5.25;;;;;;;;;;4967415;28;20074;-73
2022/01/19 06:31:43;;;;;;;10.45;5.88;;;;;;;;;;4969176;28;20113;-74
2022/01/19 06:34:09;;;;;;;8.80;5.22;;;;;;;;;;4964911;28;20051;-74
2022/01/19 06:36:35;;;;;;;13.18;5.68;;;;;;;;;;4969265;28;20039;-73
2022/01/19 06:39:01;;;;;;;10.32;5.32;;;;;;;;;;4969268;28;20450;-73
2022/01/19 06:41:27;;;;;;;7.65;4.93;;;;;;;;;;4968576;28;20417;-73
2022/01/19 06:43:53;;;;;;;10.02;5.50;;;;;;;;;;4968792;28;20130;-74
2022/01/19 06:46:19;;;;;;;8.88;5.25;;;;;;;;;;4968780;28;20066;-73
2022/01/19 06:48:45;;;;;;;9.70;6.05;;;;;;;;;;4968656;28;20057;-73
2022/01/19 06:51:11;;;;;;;9.48;5.13;;;;;;;;;;4967380;28;20050;-72
2022/01/19 06:53:37;;;;;;;10.27;4.97;;;;;;;;;;4968061;28;20078;-73
2022/01/19 06:56:03;;;;;;;8.57;5.03;;;;;;;;;;4949068;28;20093;-73
2022/01/19 06:58:30;;;;;;;12.07;5.07;;;;;;;;;;4968887;28;20056;-73
2022/01/19 07:00:56;;;;;;;10.13;4.78;;;;;;;;;;4968136;28;20074;-74
2022/01/19 07:03:24;;;;;;;8.02;5.35;;;;;;;;;;4968777;28;20042;-74
2022/01/19 07:05:50;;;;;;;7.18;4.65;;;;;;;;;;4968569;28;20543;-73
2022/01/19 07:08:16;;;;;;;7.68;4.70;;;;;;;;;;4968213;28;20373;-74
2022/01/19 07:10:43;;;;;;;9.23;5.28;;;;;;;;;;4967972;28;20116;-74
2022/01/19 07:13:09;;;;;;;8.98;5.13;;;;;;;;;;4967947;28;20125;-74
2022/01/19 07:15:36;;;;;;;11.05;5.53;;;;;;;;;;4968340;28;20042;-74
2022/01/19 07:18:03;;;;;;;9.05;4.95;;;;;;;;;;4966616;28;20090;-73
2022/01/19 07:20:29;;;;;;;10.68;5.47;;;;;;;;;;4968302;28;20046;-73
2022/01/19 07:22:56;;;;;;;8.20;4.88;;;;;;;;;;4968172;28;20420;-73
2022/01/19 07:25:23;;;;;;;8.88;4.70;;;;;;;;;;4968463;28;20054;-73
2022/01/19 07:27:49;;;;;;;9.27;4.45;;;;;;;;;;4968067;28;20053;-72
2022/01/19 07:30:15;;;;;;;8.15;4.57;;;;;;;;;;4967345;28;20445;-73
2022/01/19 07:32:42;;;;;;;7.53;4.93;;;;;;;;;;4967651;28;20034;-74
2022/01/19 07:35:09;;;;;;;8.38;4.57;;;;;;;;;;4967282;28;20109;-74
2022/01/19 07:37:35;;;;;;;7.38;4.38;;;;;;;;;;4966460;28;20121;-73
2022/01/19 07:40:01;;;;;;;7.07;4.57;;;;;;;;;;4967414;28;20074;-74
2022/01/19 07:42:27;;;;;;;7.88;4.47;;;;;;;;;;4967220;28;20051;-73
2022/01/19 07:44:54;;;;;;;7.97;4.80;;;;;;;;;;4967394;28;20406;-74
2022/01/19 07:47:20;;;;;;;8.13;4.70;;;;;;;;;;4966921;28;20055;-74
2022/01/19 07:49:47;;;;;;;9.68;4.70;;;;;;;;;;4968015;28;20183;-74
2022/01/19 07:52:13;;;;;;;7.78;4.68;;;;;;;;;;4967267;28;20049;-73
2022/01/19 07:54:39;;;;;;;6.32;4.30;;;;;;;;;;4968084;28;20035;-72
2022/01/19 07:57:05;;;;;;;9.77;4.85;;;;;;;;;;4966608;28;20046;-72
2022/01/19 07:59:31;;;;;;;8.65;4.55;;;;;;;;;;4964983;28;20074;-71
2022/01/19 08:01:57;;;;;;;7.05;4.60;;;;;;;;;;4969946;28;20561;-71
2022/01/19 08:04:23;;;;;;;6.47;4.00;;;;;;;;;;4971820;28;20130;-72
2022/01/19 08:06:54;;;;;;;8.45;4.20;;;;;;;;;;4971923;28;20069;-73
2022/01/19 08:09:24;;;;;;;6.43;3.72;;;;;;;;;;4971205;28;20055;-74
2022/01/19 08:11:51;;;;;;;6.32;3.60;;;;;;;;;;4973703;28;20538;-72
2022/01/19 08:14:17;;;;;;;18.10;11.75;;;;;;;;;;4955912;28;20046;-71
2022/01/19 08:16:43;;;;;;;13.90;10.90;;;;;;;;;;4971860;28;20038;-73
2022/01/19 08:19:09;;;;;;;19.75;13.52;;;;;;;;;;4972022;28;20046;-71
2022/01/19 08:21:35;;;;;;;26.05;15.13;;;;;;;;;;4971646;28;20678;-72
2022/01/19 08:24:02;;;;;;;23.30;14.10;;;;;;;;;;4971801;28;20077;-78
2022/01/19 08:26:28;;;;;;;21.23;14.00;;;;;;;;;;4970049;28;20047;-76
2022/01/19 08:28:54;;;;;;;19.75;13.68;;;;;;;;;;4971232;28;20137;-79
2022/01/19 08:31:20;;;;;;;22.42;14.05;;;;;;;;;;4971320;28;20070;-77
2022/01/19 08:33:46;;;;;;;24.65;15.32;;;;;;;;;;4971370;28;20039;-76
2022/01/19 08:36:12;;;;;;;20.50;13.00;;;;;;;;;;4971394;28;20046;-75
2022/01/19 08:38:39;;;;;;;18.38;12.82;;;;;;;;;;4970780;28;20059;-79
2022/01/19 08:41:05;;;;;;;22.23;13.68;;;;;;;;;;4971547;28;20355;-84
2022/01/19 08:43:32;;;;;;;28.25;16.65;;;;;;;;;;4969611;28;20047;-82
2022/01/19 08:45:58;;;;;;;21.77;14.52;;;;;;;;;;4972397;28;20133;-83
2022/01/19 08:48:25;;;;;;;26.17;16.27;;;;;;;;;;4971937;28;20058;-81
2022/01/19 08:50:51;;;;;;;20.92;13.30;;;;;;;;;;4960191;28;20082;-82
2022/01/19 08:53:17;;;;;;;22.25;14.70;;;;;;;;;;4973088;28;20405;-80
2022/01/19 08:55:43;;;;;;;26.98;16.67;;;;;;;;;;4972134;28;20105;-83
2022/01/19 08:58:10;;;;;;;21.30;14.35;;;;;;;;;;4970299;28;20038;-82
2022/01/19 09:00:37;;;;;;;28.63;19.23;;;;;;;;;;4971295;28;20046;-79
2022/01/19 09:03:03;;;;;;;42.90;24.98;;;;;;;;;;4968336;28;20058;-76
2022/01/19 09:05:29;;;;;;;36.58;24.98;;;;;;;;;;4969248;28;20043;-75
2022/01/19 09:07:56;;;;;;;36.28;22.20;;;;;;;;;;4970910;28;20062;-79
2022/01/19 09:10:22;;;;;;;36.85;23.75;;;;;;;;;;4970480;28;20058;-79
2022/01/19 09:12:48;;;;;;;34.60;22.25;;;;;;;;;;4949205;28;20051;-80
2022/01/19 09:15:15;;;;;;;33.38;22.30;;;;;;;;;;4974255;28;20050;-80
2022/01/19 09:17:41;;;;;;;35.55;22.75;;;;;;;;;;4971161;28;20437;-77
2022/01/19 09:20:08;;;;;;;31.10;20.85;;;;;;;;;;4970887;28;20109;-81
2022/01/19 09:22:34;;;;;;;33.67;21.48;;;;;;;;;;4972817;28;20046;-78
2022/01/19 09:25:01;;;;;;;32.88;21.58;;;;;;;;;;4968455;28;20043;-80
2022/01/19 09:27:27;;;;;;;31.73;20.27;;;;;;;;;;4967000;28;20050;-78
2022/01/19 09:29:53;;;;;;;36.97;21.75;;;;;;;;;;4969698;28;20039;-80
2022/01/19 09:32:20;;;;;;;31.83;20.85;;;;;;;;;;4969714;28;20055;-75
2022/01/19 09:34:55;;;;;;;28.20;18.23;;;;;;;;;;4964445;28;20047;-82
2022/01/19 09:37:21;;;;;;;27.90;17.80;;;;;;;;;;4973466;28;20130;-82
2022/01/19 09:39:47;;;;;;;29.45;17.95;;;;;;;;;;4970508;28;20113;-81
2022/01/19 09:42:13;;;;;;;25.13;17.23;;;;;;;;;;4975158;28;20054;-79
2022/01/19 09:44:39;;;;;;;26.40;17.80;;;;;;;;;;4972338;28;20101;-81
2022/01/19 09:47:07;;;;;;;27.30;18.00;;;;;;;;;;4973297;28;20117;-82
2022/01/19 09:49:33;;;;;;;24.95;16.65;;;;;;;;;;4973057;28;20054;-82
2022/01/19 09:52:00;;;;;;;27.60;17.80;;;;;;;;;;4972057;28;20142;-83
2022/01/19 09:54:27;;;;;;;25.02;17.38;;;;;;;;;;4972091;28;20042;-80
2022/01/19 09:56:53;;;;;;;26.73;17.73;;;;;;;;;;4974006;28;20035;-83
2022/01/19 09:59:20;;;;;;;26.70;17.58;;;;;;;;;;4977997;28;20152;-86
2022/01/19 10:01:50;;;;;;;27.10;18.67;;;;;;;;;;4972168;28;20052;-81
2022/01/19 10:04:17;;;;;;;24.85;16.75;;;;;;;;;;4967768;28;20583;-78
2022/01/19 10:06:43;;;;;;;28.67;18.40;;;;;;;;;;4969993;28;20409;-79
2022/01/19 10:09:10;;;;;;;24.17;17.15;;;;;;;;;;4969731;28;20050;-82
2022/01/19 10:17:03;;;;;;;26.13;18.20;;;;;;;;;;4970089;28;20457;-79
2022/01/19 10:19:32;;;;;;;27.83;19.15;;;;;;;;;;4969784;28;20129;-83
2022/01/19 10:22:02;;;;;;;26.80;19.48;;;;;;;;;;4970071;28;20161;-79
2022/01/19 10:24:39;;;;;;;28.98;19.55;;;;;;;;;;4965002;28;20078;-84
2022/01/19 10:27:37;;;;;;;32.10;19.67;;;;;;;;;;4969582;28;20054;-84
2022/01/19 10:30:03;;;;;;;31.40;19.27;;;;;;;;;;4929432;28;20047;-81
2022/01/19 10:32:31;;;;;;;34.63;21.50;;;;;;;;;;4970114;28;20516;-79
2022/01/19 10:34:58;;;;;;;35.10;21.50;;;;;;;;;;4970237;28;20062;-80
2022/01/19 10:37:25;;;;;;;28.15;20.10;;;;;;;;;;4968598;28;20051;-82
2022/01/19 10:39:53;;;;;;;33.67;20.60;;;;;;;;;;4968598;28;20813;-81
2022/01/19 10:42:31;;;;;;;31.30;20.58;;;;;;;;;;4965442;28;20086;-82
2022/01/19 10:45:04;;;;;;;31.42;20.88;;;;;;;;;;4967808;28;20067;-81
2022/01/19 10:47:42;;;;;;;30.05;20.98;;;;;;;;;;4967723;28;20055;-79
2022/01/19 10:50:28;;;;;;;30.33;20.83;;;;;;;;;;4966353;28;20046;-80
2022/01/19 10:52:55;;;;;;;32.75;21.58;;;;;;;;;;4966781;28;20038;-79
2022/01/19 10:55:24;;;;;;;29.05;21.10;;;;;;;;;;4968435;28;20078;-79
2022/01/19 10:57:51;;;;;;;30.52;21.67;;;;;;;;;;4968486;28;20055;-83
2022/01/19 11:00:24;;;;;;;30.80;21.42;;;;;;;;;;4967377;28;20565;-77
2022/01/19 11:02:51;;;;;;;31.42;20.50;;;;;;;;;;4966394;28;20039;-83
2022/01/19 11:05:18;;;;;;;32.22;21.20;;;;;;;;;;4966714;28;20050;-84
2022/01/19 11:07:44;;;;;;;29.45;21.13;;;;;;;;;;4969258;28;20473;-85
2022/01/19 11:10:18;;;;;;;31.48;21.50;;;;;;;;;;4968220;28;20396;-81
2022/01/19 11:12:47;;;;;;;30.42;21.38;;;;;;;;;;4968205;28;20043;-83
2022/01/19 11:15:14;;;;;;;28.33;20.95;;;;;;;;;;4967248;28;20077;-85
2022/01/19 11:17:40;;;;;;;30.65;21.33;;;;;;;;;;4967547;28;20042;-83
2022/01/19 11:20:11;;;;;;;28.40;20.55;;;;;;;;;;4967852;28;20057;-84
2022/01/19 11:23:04;;;;;;;30.73;21.45;;;;;;;;;;4967156;28;20039;-82
2022/01/19 11:25:34;;;;;;;29.52;21.23;;;;;;;;;;4965524;28;20053;-75
2022/01/19 11:28:00;;;;;;;28.30;20.77;;;;;;;;;;4968323;28;20097;-81
2022/01/19 11:30:28;;;;;;;35.13;22.83;;;;;;;;;;4967264;28;20046;-84
2022/01/19 11:33:06;;;;;;;29.02;20.98;;;;;;;;;;4967801;28;20465;-82
2022/01/19 11:35:34;;;;;;;30.33;22.17;;;;;;;;;;4966690;28;20465;-79
2022/01/19 11:38:00;;;;;;;29.15;22.60;;;;;;;;;;4967932;28;20517;-79
2022/01/19 11:40:34;;;;;;;29.75;22.17;;;;;;;;;;4967757;28;20500;-78
2022/01/19 11:43:18;;;;;;;30.15;22.45;;;;;;;;;;4967085;28;20082;-80
2022/01/19 11:45:44;;;;;;;29.88;20.65;;;;;;;;;;4966522;28;20170;-80
2022/01/19 11:48:15;;;;;;;30.73;21.40;;;;;;;;;;4966463;28;20051;-78
2022/01/19 11:50:41;;;;;;;30.58;21.63;;;;;;;;;;4968352;28;20078;-81
2022/01/19 11:53:10;;;;;;;30.90;21.63;;;;;;;;;;4967887;28;20043;-81
2022/01/19 11:55:37;;;;;;;29.42;21.48;;;;;;;;;;4965345;28;20057;-83
2022/01/19 11:58:13;;;;;;;29.85;21.70;;;;;;;;;;4968464;28;20128;-82
2022/01/19 12:00:40;;;;;;;29.48;21.75;;;;;;;;;;4969759;28;20081;-82
2022/01/19 12:03:21;;;;;;;29.08;22.42;;;;;;;;;;4973780;28;20456;-82
2022/01/19 12:05:50;;;;;;;29.23;21.95;;;;;;;;;;4966435;28;20055;-79
2022/01/19 12:08:31;;;;;;;28.67;20.95;;;;;;;;;;4967343;28;20053;-78
2022/01/19 12:11:17;;;;;;;28.13;21.25;;;;;;;;;;4972432;28;20105;-77
2022/01/19 12:16:19;;;;;;;29.85;22.50;;;;;;;;;;4964874;28;20054;-83
2022/01/19 12:18:45;;;;;;;30.80;21.75;;;;;;;;;;4962715;28;20051;-81
2022/01/19 12:21:13;;;;;;;34.30;21.23;;;;;;;;;;4988642;28;20050;-75
2022/01/19 12:23:40;;;;;;;34.05;22.88;;;;;;;;;;4988627;28;20054;-75
2022/01/19 12:26:07;;;;;;;33.70;22.23;;;;;;;;;;4989135;28;20057;-75
2022/01/19 12:28:52;;;;;;;34.00;21.23;;;;;;;;;;4988678;28;20065;-74
2022/01/19 12:31:31;;;;;;;34.65;20.80;;;;;;;;;;4987227;28;20058;-74
2022/01/19 12:34:19;;;;;;;30.98;22.70;;;;;;;;;;4988870;28;20074;-75
2022/01/19 12:36:58;;;;;;;28.98;20.80;;;;;;;;;;4988010;28;20050;-74
2022/01/19 12:39:27;;;;;;;35.83;21.08;;;;;;;;;;4988807;28;20088;-74
2022/01/19 12:41:53;;;;;;;27.23;21.42;;;;;;;;;;4987157;28;20551;-74
2022/01/19 12:44:45;;;;;;;30.98;21.65;;;;;;;;;;4988819;28;20086;-74
2022/01/19 12:47:29;;;;;;;27.50;21.05;;;;;;;;;;4987427;28;20419;-76
2022/01/19 12:49:56;;;;;;;34.92;21.77;;;;;;;;;;4992402;28;20066;-74
2022/01/19 12:52:24;;;;;;;28.85;20.92;;;;;;;;;;4991768;28;20133;-74
2022/01/19 12:54:51;;;;;;;29.80;20.15;;;;;;;;;;4990954;28;20537;-75
2022/01/19 12:57:17;;;;;;;26.63;20.05;;;;;;;;;;4992015;28;20081;-75
2022/01/19 12:59:45;;;;;;;26.38;19.20;;;;;;;;;;4992150;28;20054;-75
2022/01/19 13:02:13;;;;;;;30.35;19.98;;;;;;;;;;4992056;28;20513;-75
2022/01/19 13:04:40;;;;;;;28.65;21.45;;;;;;;;;;4992041;28;20050;-74
2022/01/19 13:07:20;;;;;;;28.42;20.42;;;;;;;;;;4977771;28;20046;-74
2022/01/19 13:10:17;;;;;;;27.05;19.45;;;;;;;;;;4972315;28;20441;-74
2022/01/19 13:12:49;;;;;;;25.33;19.48;;;;;;;;;;4977814;28;20452;-74
2022/01/19 13:15:15;;;;;;;28.63;19.98;;;;;;;;;;4991464;28;20043;-74
2022/01/19 13:17:41;;;;;;;28.88;20.05;;;;;;;;;;4990728;28;20464;-73
2022/01/19 13:20:09;;;;;;;26.48;19.42;;;;;;;;;;4991910;28;20073;-75
2022/01/19 13:22:42;;;;;;;26.00;19.83;;;;;;;;;;4990314;28;20057;-74
2022/01/19 13:25:16;;;;;;;22.95;19.05;;;;;;;;;;4991638;28;20455;-72
2022/01/19 13:27:43;;;;;;;24.63;19.35;;;;;;;;;;4991431;28;20046;-72
2022/01/19 13:30:12;;;;;;;27.55;19.38;;;;;;;;;;4990057;28;20073;-76
2022/01/19 13:32:39;;;;;;;25.45;19.15;;;;;;;;;;4990477;28;20055;-73
2022/01/19 13:35:06;;;;;;;24.20;20.10;;;;;;;;;;4991203;28;20050;-71
2022/01/19 13:37:32;;;;;;;26.60;18.75;;;;;;;;;;4989967;28;20058;-74
2022/01/19 13:40:07;;;;;;;25.08;19.13;;;;;;;;;;4991582;28;20057;-70
2022/01/19 13:42:53;;;;;;;23.95;18.13;;;;;;;;;;4991244;28;20057;-71
2022/01/19 13:45:28;;;;;;;24.40;17.80;;;;;;;;;;4990290;28;20050;-73
2022/01/19 13:48:21;;;;;;;27.50;17.25;;;;;;;;;;4990917;28;20061;-73
2022/01/19 13:50:43;;;;;;;26.42;17.67;;;;;;;;;;4991390;28;20571;-74
2022/01/19 13:53:13;;;;;;;28.13;18.35;;;;;;;;;;4991422;28;20104;-74
2022/01/19 13:55:39;;;;;;;24.85;16.98;;;;;;;;;;4991177;28;20052;-73
2022/01/19 13:58:09;;;;;;;19.95;16.02;;;;;;;;;;4990990;28;20459;-71
2022/01/19 14:00:37;;;;;;;23.40;17.75;;;;;;;;;;4990310;28;20082;-71
2022/01/19 14:03:05;;;;;;;24.50;17.40;;;;;;;;;;4991490;28;20051;-72
2022/01/19 14:09:23;;;;;;;25.40;16.65;;;;;;;;;;4991091;28;20499;-75
2022/01/19 14:12:02;;;;;;;20.95;15.75;;;;;;;;;;4990298;28;20105;-75
2022/01/19 14:14:34;;;;;;;21.13;16.85;;;;;;;;;;4989505;28;20050;-75
2022/01/19 14:17:01;;;;;;;20.13;15.48;;;;;;;;;;4990259;28;20120;-74
2022/01/19 14:19:28;;;;;;;22.20;16.30;;;;;;;;;;4990646;28;20054;-73
2022/01/19 14:22:04;;;;;;;23.45;16.92;;;;;;;;;;4990721;28;20068;-72
2022/01/19 14:24:42;;;;;;;22.98;15.23;;;;;;;;;;4973841;28;20133;-71
2022/01/19 14:27:11;;;;;;;21.10;15.93;;;;;;;;;;4970281;28;20401;-73
2022/01/19 14:29:37;;;;;;;19.92;14.10;;;;;;;;;;4971201;28;20078;-71
2022/01/19 14:32:03;;;;;;;22.52;13.23;;;;;;;;;;4970617;28;20489;-70
2022/01/19 14:34:37;;;;;;;17.42;12.60;;;;;;;;;;4971205;28;20433;-71
2022/01/19 14:37:09;;;;;;;20.55;13.40;;;;;;;;;;4980030;28;20130;-71
2022/01/19 14:39:50;;;;;;;18.70;12.77;;;;;;;;;;4971020;28;20054;-71
2022/01/19 14:42:18;;;;;;;18.02;11.95;;;;;;;;;;4970333;28;20078;-69
2022/01/19 14:44:57;;;;;;;17.63;11.02;;;;;;;;;;4953367;28;20046;-72
2022/01/19 14:47:37;;;;;;;14.32;11.50;;;;;;;;;;4970307;28;20399;-71
2022/01/19 14:50:20;;;;;;;15.02;11.32;;;;;;;;;;4969493;28;20054;-72
2022/01/19 14:52:49;;;;;;;13.82;11.07;;;;;;;;;;4952781;28;20046;-72
2022/01/19 14:58:38;;;;;;;19.05;10.40;;;;;;;;;;4970783;28;20469;-70
2022/01/19 15:01:04;;;;;;;17.95;10.57;;;;;;;;;;4969885;28;20453;-71
2022/01/19 15:03:30;;;;;;;17.40;10.93;;;;;;;;;;4970335;28;20133;-71
2022/01/19 15:05:56;;;;;;;16.38;10.38;;;;;;;;;;4970650;28;20101;-72
2022/01/19 15:08:22;;;;;;;17.40;10.55;;;;;;;;;;4970375;28;20074;-71
2022/01/19 15:10:48;;;;;;;14.30;10.13;;;;;;;;;;4969513;28;20094;-71
2022/01/19 15:13:14;;;;;;;21.33;10.73;;;;;;;;;;4968340;28;20511;-71
2022/01/19 15:15:40;;;;;;;16.42;10.88;;;;;;;;;;4971743;28;20050;-71
2022/01/19 15:18:07;;;;;;;17.17;10.45;;;;;;;;;;4989873;28;20042;-70
2022/01/19 15:20:39;;;;;;;16.52;9.68;;;;;;;;;;4989720;28;20050;-71
2022/01/19 15:23:06;;;;;;;17.90;10.00;;;;;;;;;;4989634;28;20085;-71
2022/01/19 15:25:33;;;;;;;13.95;9.93;;;;;;;;;;4967289;28;20039;-71
2022/01/19 15:27:59;;;;;;;14.27;9.90;;;;;;;;;;4984279;28;20164;-71
2022/01/19 15:30:27;;;;;;;14.45;9.40;;;;;;;;;;4983654;28;20039;-71
2022/01/19 15:32:53;;;;;;;14.98;9.77;;;;;;;;;;4962143;28;20082;-72
2022/01/19 15:35:20;;;;;;;15.25;9.38;;;;;;;;;;4962986;28;20038;-70
2022/01/19 15:37:47;;;;;;;13.80;9.50;;;;;;;;;;4967922;28;20072;-69
2022/01/19 15:40:13;;;;;;;13.00;8.50;;;;;;;;;;4968873;28;20126;-70
2022/01/19 15:42:49;;;;;;;16.02;9.05;;;;;;;;;;4969130;28;20485;-69
2022/01/19 15:45:15;;;;;;;13.82;8.73;;;;;;;;;;4969733;28;20035;-68
2022/01/19 15:47:41;;;;;;;12.40;8.57;;;;;;;;;;4968738;28;20058;-69
2022/01/19 15:50:08;;;;;;;12.55;8.35;;;;;;;;;;4969874;28;20057;-70
2022/01/19 15:52:34;;;;;;;12.40;8.45;;;;;;;;;;4968329;28;20378;-69
2022/01/19 15:55:00;;;;;;;13.80;8.45;;;;;;;;;;4968613;28;20461;-72
2022/01/19 15:57:26;;;;;;;12.40;8.82;;;;;;;;;;4969471;28;20134;-72
2022/01/19 15:59:53;;;;;;;13.68;8.25;;;;;;;;;;4969814;28;20081;-71
2022/01/19 16:02:19;;;;;;;12.50;8.48;;;;;;;;;;4968886;28;20054;-71
2022/01/19 16:04:45;;;;;;;11.48;8.40;;;;;;;;;;4969282;28;20043;-71
2022/01/19 16:07:12;;;;;;;11.55;7.68;;;;;;;;;;4969653;28;20054;-73
2022/01/19 16:09:38;;;;;;;10.77;7.50;;;;;;;;;;4968539;28;20046;-70
2022/01/19 16:12:04;;;;;;;10.55;7.70;;;;;;;;;;4968682;28;20082;-70
2022/01/19 16:14:30;;;;;;;11.07;7.20;;;;;;;;;;4969791;28;20043;-69